Time;durP1;ratioP1;P1;durP2;ratioP2;P2;SDS_P1;SDS_P2;PMS_P1;PMS_P2;Temp;Humidity;BMP_temperature;BMP_pressure;BME280_temperature;BME280_humidity;BME280_pressure;Samples;Min_cycle;Max_cycle;Signal;HPM_P1;HPM_P2
2023/10/18 00:00:58;;;;;;;16.50;12.20;;;;;;;0.79;76.16;97516.34;108019;1237;99027;-81
2023/10/18 00:03:44;;;;;;;23.80;15.60;;;;;;;0.80;76.22;97510.94;107964;1238;102501;-80
2023/10/18 00:06:15;;;;;;;21.60;16.70;;;;;;;0.82;76.15;97509.02;107469;1248;99150;-80
2023/10/18 00:08:45;;;;;;;23.30;16.40;;;;;;;0.83;76.13;97511.37;107966;1237;98820;-74
2023/10/18 00:11:13;;;;;;;22.70;16.00;;;;;;;0.86;76.16;97515.00;107921;1235;97989;-74
2023/10/18 00:13:39;;;;;;;23.00;16.50;;;;;;;0.89;76.28;97514.02;107985;1237;97853;-74
2023/10/18 00:16:07;;;;;;;22.20;16.60;;;;;;;0.89;76.35;97507.58;107981;1237;98807;-78
2023/10/18 00:18:35;;;;;;;21.10;16.30;;;;;;;0.90;76.30;97506.37;107492;1238;98086;-78
2023/10/18 00:21:06;;;;;;;26.80;17.50;;;;;;;0.88;76.42;97497.96;107940;1245;97939;-78
2023/10/18 00:23:33;;;;;;;22.80;17.20;;;;;;;0.82;76.51;97490.37;107963;1238;97988;-78
2023/10/18 00:26:06;;;;;;;24.00;18.40;;;;;;;0.82;76.67;97488.05;107983;1242;97973;-78
2023/10/18 00:28:36;;;;;;;20.40;15.80;;;;;;;0.86;76.76;97492.48;108000;1236;103409;-78
2023/10/18 00:31:17;;;;;;;21.40;14.80;;;;;;;0.88;76.78;97488.20;107745;1240;101258;-74
2023/10/18 00:33:48;;;;;;;19.90;14.20;;;;;;;0.90;76.75;97489.80;107988;1247;99862;-74
2023/10/18 00:36:16;;;;;;;16.90;12.60;;;;;;;0.90;76.81;97489.95;107200;1243;98056;-74
2023/10/18 00:38:47;;;;;;;15.20;12.20;;;;;;;0.90;76.83;97484.96;107548;1240;98424;-74
2023/10/18 00:41:16;;;;;;;15.40;12.00;;;;;;;0.89;76.76;97482.59;107960;1238;103367;-74
2023/10/18 00:43:44;;;;;;;16.00;12.00;;;;;;;0.88;76.82;97475.60;108012;1236;101281;-74
2023/10/18 00:46:13;;;;;;;15.20;12.10;;;;;;;0.89;76.92;97473.23;107968;1240;99851;-77
2023/10/18 00:48:42;;;;;;;17.80;12.30;;;;;;;0.88;76.86;97472.61;107542;1242;98898;-78
2023/10/18 00:51:09;;;;;;;17.30;12.50;;;;;;;0.87;76.81;97473.90;107394;1247;98345;-76
2023/10/18 00:53:39;;;;;;;13.60;11.30;;;;;;;0.87;76.86;97474.31;107803;1248;98003;-75
2023/10/18 00:56:07;;;;;;;14.90;12.10;;;;;;;0.85;76.69;97472.18;108014;1237;108099;-75
2023/10/18 00:58:34;;;;;;;15.80;11.30;;;;;;;0.83;76.75;97474.89;107780;1248;99943;-76
2023/10/18 01:01:08;;;;;;;17.10;13.00;;;;;;;0.81;76.79;97475.27;107559;1234;98069;-72
2023/10/18 01:03:45;;;;;;;15.90;12.60;;;;;;;0.77;76.83;97474.38;107528;1248;98467;-72
2023/10/18 01:06:17;;;;;;;17.90;12.60;;;;;;;0.78;76.98;97473.42;107548;1244;102495;-73
2023/10/18 01:08:45;;;;;;;20.00;13.70;;;;;;;0.78;77.04;97467.22;107655;1248;101160;-78
2023/10/18 01:11:12;;;;;;;21.10;12.70;;;;;;;0.77;77.05;97460.73;107839;1238;98002;-78
2023/10/18 01:13:42;;;;;;;16.80;13.00;;;;;;;0.75;77.03;97457.05;107498;1237;98107;-78
2023/10/18 01:16:14;;;;;;;16.90;12.90;;;;;;;0.74;77.09;97455.73;107570;1240;98353;-78
2023/10/18 01:18:47;;;;;;;15.10;12.30;;;;;;;0.74;77.06;97457.34;108432;1241;103310;-78
2023/10/18 01:21:21;;;;;;;19.70;13.10;;;;;;;0.71;77.03;97452.30;107289;1248;99907;-78
2023/10/18 01:23:55;;;;;;;18.30;13.30;;;;;;;0.70;77.13;97450.66;107368;1251;99896;-79
2023/10/18 01:26:24;;;;;;;18.60;12.50;;;;;;;0.71;77.10;97448.36;107395;1243;99141;-80
2023/10/18 01:28:52;;;;;;;16.10;11.70;;;;;;;0.70;77.06;97442.97;107429;1250;98624;-80
2023/10/18 01:31:19;;;;;;;15.60;11.60;;;;;;;0.66;76.96;97442.52;107281;1246;102173;-79
2023/10/18 01:33:48;;;;;;;15.40;11.90;;;;;;;0.61;77.09;97443.31;107387;1243;98068;-80
2023/10/18 01:36:15;;;;;;;14.40;11.30;;;;;;;0.61;77.09;97443.67;107395;1247;99102;-79
2023/10/18 01:38:44;;;;;;;13.50;11.20;;;;;;;0.58;77.01;97435.15;107000;1248;98018;-80
2023/10/18 01:41:16;;;;;;;14.00;11.40;;;;;;;0.51;76.96;97428.09;107278;1252;98374;-80
2023/10/18 01:43:43;;;;;;;;;;;;;;;0.47;77.11;97426.50;107220;1245;102694;-75
2023/10/18 01:46:13;;;;;;;15.20;10.80;;;;;;;0.47;77.36;97427.76;107178;1249;97921;-74
2023/10/18 01:48:40;;;;;;;15.00;10.80;;;;;;;0.48;77.32;97431.38;106775;1245;100064;-74
2023/10/18 01:51:09;;;;;;;15.10;11.30;;;;;;;0.49;77.21;97431.81;106900;1248;98054;-74
2023/10/18 01:53:41;;;;;;;17.40;12.30;;;;;;;0.45;77.11;97435.95;107243;1241;98772;-75
2023/10/18 01:56:07;;;;;;;18.40;13.70;;;;;;;0.38;77.15;97440.97;107592;1249;103545;-74
2023/10/18 01:58:36;;;;;;;17.70;13.80;;;;;;;0.33;77.21;97442.15;107779;1250;98007;-75
2023/10/18 02:01:08;;;;;;;18.30;13.50;;;;;;;0.26;77.29;97445.98;107687;1248;98836;-77
2023/10/18 02:03:38;;;;;;;15.60;12.40;;;;;;;0.27;77.46;97443.27;107688;1241;97905;-77
2023/10/18 02:06:06;;;;;;;19.00;12.90;;;;;;;0.29;77.46;97444.45;107407;1236;98835;-77
2023/10/18 02:08:34;;;;;;;21.10;15.30;;;;;;;0.28;77.44;97444.02;107710;1247;103704;-76
2023/10/18 02:11:05;;;;;;;21.80;14.10;;;;;;;0.29;77.53;97446.05;107394;1244;99757;-76
2023/10/18 02:13:32;;;;;;;19.80;14.50;;;;;;;0.33;77.48;97447.14;107573;1248;99060;-77
2023/10/18 02:15:58;;;;;;;16.70;12.60;;;;;;;0.33;77.36;97445.52;107925;1247;97963;-75
2023/10/18 02:18:27;;;;;;;19.60;13.60;;;;;;;0.33;77.28;97447.33;107958;1245;97910;-75
2023/10/18 02:20:53;;;;;;;20.20;13.10;;;;;;;0.32;77.30;97446.50;108037;1238;97901;-75
2023/10/18 02:23:21;;;;;;;17.20;12.30;;;;;;;0.31;77.28;97439.20;107961;1241;97939;-73
2023/10/18 02:25:49;;;;;;;19.70;12.90;;;;;;;0.30;77.23;97438.53;107943;1238;97926;-73
2023/10/18 02:28:24;;;;;;;15.40;11.80;;;;;;;0.30;77.16;97436.93;107342;1235;98040;-73
2023/10/18 02:30:57;;;;;;;17.50;12.90;;;;;;;0.27;77.08;97446.05;107530;1244;98494;-77
2023/10/18 02:33:26;;;;;;;17.90;12.20;;;;;;;0.25;77.08;97445.41;107949;1244;103615;-77
2023/10/18 02:35:57;;;;;;;18.10;12.00;;;;;;;0.24;77.11;97444.05;108082;1237;100256;-76
2023/10/18 02:38:25;;;;;;;17.90;11.50;;;;;;;0.23;77.08;97447.36;107978;1246;98850;-77
2023/10/18 02:40:52;;;;;;;16.50;11.60;;;;;;;0.21;77.00;97451.48;108023;1238;99239;-77
2023/10/18 02:43:18;;;;;;;16.70;11.80;;;;;;;0.19;77.02;97454.11;107926;1244;97947;-77
2023/10/18 02:45:51;;;;;;;16.20;12.00;;;;;;;0.17;77.09;97455.55;107924;1238;98002;-77
2023/10/18 02:48:22;;;;;;;15.00;11.60;;;;;;;0.17;77.05;97458.61;107991;1244;101050;-76
2023/10/18 02:50:54;;;;;;;15.20;11.00;;;;;;;0.16;77.08;97459.60;107407;1248;98924;-77
2023/10/18 02:53:20;;;;;;;16.60;10.70;;;;;;;0.14;77.10;97457.77;107952;1238;99106;-77
2023/10/18 02:55:55;;;;;;;14.10;11.10;;;;;;;0.13;77.07;97458.79;107957;1238;97940;-76
2023/10/18 02:58:27;;;;;;;13.90;11.10;;;;;;;0.11;77.12;97451.91;107910;1244;103469;-76
2023/10/18 03:00:56;;;;;;;16.40;11.00;;;;;;;0.12;77.11;97450.95;107748;1233;101289;-73
2023/10/18 03:03:22;;;;;;;16.80;11.20;;;;;;;0.12;77.14;97445.27;107684;1248;99832;-73
2023/10/18 03:05:49;;;;;;;14.60;10.90;;;;;;;0.10;76.98;97447.42;107949;1237;99179;-73
2023/10/18 03:08:20;;;;;;;13.60;10.90;;;;;;;0.05;76.88;97441.84;107974;1245;99160;-73
2023/10/18 03:10:48;;;;;;;14.80;10.40;;;;;;;0.02;77.06;97447.27;107571;1242;103603;-73
2023/10/18 03:13:17;;;;;;;15.10;11.00;;;;;;;-0.01;77.05;97451.46;108010;1244;97902;-73
2023/10/18 03:15:54;;;;;;;15.20;11.30;;;;;;;-0.03;77.06;97449.37;107964;1237;100053;-77
2023/10/18 03:18:24;;;;;;;16.00;11.70;;;;;;;-0.07;77.18;97450.04;107825;1245;98446;-77
2023/10/18 03:20:57;;;;;;;15.90;10.60;;;;;;;-0.06;77.34;97451.02;107561;1248;98519;-74
2023/10/18 03:23:26;;;;;;;13.60;10.40;;;;;;;-0.05;77.23;97452.89;107837;1247;102478;-74
2023/10/18 03:26:07;;;;;;;14.70;10.00;;;;;;;-0.06;77.16;97451.52;107199;1246;101398;-74
2023/10/18 03:28:35;;;;;;;16.60;10.60;;;;;;;-0.08;77.10;97453.13;107238;1243;98469;-75
2023/10/18 03:31:20;;;;;;;13.20;10.70;;;;;;;-0.10;77.09;97448.36;107272;1248;99055;-77
2023/10/18 03:33:52;;;;;;;15.80;10.30;;;;;;;-0.08;77.19;97446.80;107865;1247;98434;-77
2023/10/18 03:36:25;;;;;;;13.80;11.20;;;;;;;-0.08;77.22;97443.30;107984;1247;103565;-76
2023/10/18 03:38:54;;;;;;;12.80;10.20;;;;;;;-0.11;77.27;97441.64;107822;1237;100018;-77
2023/10/18 03:41:25;;;;;;;15.80;11.90;;;;;;;-0.17;77.25;97437.36;107850;1238;99862;-77
2023/10/18 03:44:03;;;;;;;15.80;11.40;;;;;;;-0.19;77.26;97434.80;107918;1237;97865;-75
2023/10/18 03:46:38;;;;;;;16.40;12.10;;;;;;;-0.21;77.23;97432.86;107924;1244;98349;-79
2023/10/18 03:49:10;;;;;;;20.10;16.20;;;;;;;-0.27;77.11;97437.00;107907;1238;111122;-79
2023/10/18 03:51:37;;;;;;;23.40;15.20;;;;;;;-0.36;77.18;97437.43;107492;1250;100991;-78
2023/10/18 03:54:05;;;;;;;20.50;14.80;;;;;;;-0.43;77.20;97434.51;107168;1256;99719;-79
2023/10/18 03:56:36;;;;;;;18.30;13.20;;;;;;;-0.42;77.46;97438.50;107249;1246;98018;-79
2023/10/18 03:59:19;;;;;;;20.70;13.40;;;;;;;-0.40;77.43;97432.09;107135;1242;98041;-74
2023/10/18 04:02:04;;;;;;;22.80;15.10;;;;;;;-0.40;77.55;97429.95;106837;1247;103497;-74
2023/10/18 04:04:35;;;;;;;16.80;12.90;;;;;;;-0.39;77.59;97421.39;106879;1251;101215;-75
2023/10/18 04:07:12;;;;;;;21.50;13.10;;;;;;;-0.37;77.57;97415.95;106855;1251;100058;-74
2023/10/18 04:09:45;;;;;;;19.80;14.00;;;;;;;-0.38;77.57;97416.50;106884;1248;98120;-74
2023/10/18 04:12:16;;;;;;;24.30;16.20;;;;;;;-0.38;77.55;97411.23;107176;1247;98543;-74
2023/10/18 04:14:52;;;;;;;28.60;18.70;;;;;;;-0.38;77.47;97405.63;106997;1255;103536;-75
2023/10/18 04:17:32;;;;;;;29.90;18.70;;;;;;;-0.38;77.41;97402.55;107139;1256;101335;-73
2023/10/18 04:20:00;;;;;;;22.80;15.00;;;;;;;-0.36;77.38;97396.05;106908;1248;98857;-73
2023/10/18 04:22:28;;;;;;;28.00;16.20;;;;;;;-0.37;77.38;97401.55;106890;1248;98008;-73
2023/10/18 04:24:54;;;;;;;22.60;14.70;;;;;;;-0.40;77.24;97400.82;107405;1244;98100;-73
2023/10/18 04:27:21;;;;;;;19.20;13.10;;;;;;;-0.43;77.23;97396.98;107948;1238;98485;-73
2023/10/18 04:29:48;;;;;;;26.40;15.60;;;;;;;-0.43;77.34;97399.70;107913;1237;97933;-73
2023/10/18 04:32:17;;;;;;;20.00;13.90;;;;;;;-0.40;77.39;97395.18;107657;1234;98763;-76
2023/10/18 04:34:45;;;;;;;23.80;15.60;;;;;;;-0.38;77.49;97395.18;107950;1238;98413;-76
2023/10/18 04:37:17;;;;;;;24.90;16.20;;;;;;;-0.36;77.46;97389.83;107367;1245;102421;-79
2023/10/18 04:39:43;;;;;;;20.30;14.80;;;;;;;-0.35;77.37;97390.06;107949;1244;102377;-73
2023/10/18 04:42:17;;;;;;;26.10;16.60;;;;;;;-0.34;77.35;97388.92;107945;1238;97866;-73
2023/10/18 04:44:48;;;;;;;23.90;15.70;;;;;;;-0.36;77.29;97396.59;107953;1236;97921;-74
2023/10/18 04:47:14;;;;;;;23.30;14.70;;;;;;;-0.36;77.30;97401.50;108033;1238;97876;-76
2023/10/18 04:49:50;;;;;;;19.90;14.30;;;;;;;-0.33;77.36;97411.17;107959;1235;99145;-76
2023/10/18 04:52:28;;;;;;;24.10;15.80;;;;;;;-0.34;77.29;97407.68;107677;1243;101269;-76
2023/10/18 04:55:00;;;;;;;24.30;15.40;;;;;;;-0.37;77.31;97405.50;107922;1247;100004;-77
2023/10/18 04:57:26;;;;;;;;;;;;;;;-0.40;77.36;97407.91;107708;1244;99067;-79
2023/10/18 04:59:58;;;;;;;25.50;17.30;;;;;;;-0.43;77.40;97410.25;107967;1235;98822;-79
2023/10/18 05:02:26;;;;;;;25.50;17.00;;;;;;;-0.42;77.47;97415.86;107683;1241;103264;-75
2023/10/18 05:04:54;;;;;;;26.50;16.70;;;;;;;-0.41;77.48;97418.63;107983;1238;100921;-75
2023/10/18 05:07:21;;;;;;;24.80;15.50;;;;;;;-0.42;77.41;97419.41;107497;1241;99469;-75
2023/10/18 05:09:55;;;;;;;23.40;16.20;;;;;;;-0.42;77.32;97421.33;107905;1244;97916;-75
2023/10/18 05:12:28;;;;;;;21.30;16.20;;;;;;;-0.43;77.34;97421.42;107944;1237;98440;-75
2023/10/18 05:15:09;;;;;;;27.50;17.30;;;;;;;-0.41;77.22;97419.13;107972;1247;101934;-76
2023/10/18 05:17:42;;;;;;;21.40;16.00;;;;;;;-0.43;77.21;97421.21;107970;1235;100197;-76
2023/10/18 05:20:21;;;;;;;24.30;16.30;;;;;;;-0.43;77.12;97427.25;107924;1237;99912;-77
2023/10/18 05:22:50;;;;;;;24.00;16.30;;;;;;;-0.44;77.11;97427.23;107958;1235;97894;-77
2023/10/18 05:25:23;;;;;;;26.00;17.40;;;;;;;-0.46;77.16;97428.55;107810;1237;99247;-77
2023/10/18 05:27:59;;;;;;;23.60;17.00;;;;;;;-0.46;77.14;97431.24;107567;1241;102714;-77
2023/10/18 05:30:27;;;;;;;23.30;16.20;;;;;;;-0.46;77.17;97434.41;107862;1235;100163;-78
2023/10/18 05:33:03;;;;;;;25.10;17.30;;;;;;;-0.44;77.23;97439.62;107797;1247;98004;-78
2023/10/18 05:35:33;;;;;;;25.70;17.00;;;;;;;-0.46;77.11;97441.85;107914;1235;97894;-73
2023/10/18 05:38:06;;;;;;;25.90;16.70;;;;;;;-0.47;76.99;97437.33;107954;1238;98436;-77
2023/10/18 05:40:46;;;;;;;25.20;18.00;;;;;;;-0.46;77.14;97431.64;107922;1233;103283;-77
2023/10/18 05:43:22;;;;;;;31.40;18.30;;;;;;;-0.44;77.26;97427.33;107977;1246;100280;-76
2023/10/18 05:45:55;;;;;;;23.60;16.50;;;;;;;-0.41;77.31;97432.73;107957;1234;99135;-77
2023/10/18 05:48:23;;;;;;;24.60;17.60;;;;;;;-0.40;77.28;97435.27;107939;1237;97901;-77
2023/10/18 05:50:55;;;;;;;27.20;18.20;;;;;;;-0.40;77.19;97435.83;107939;1237;98343;-78
2023/10/18 05:53:24;;;;;;;28.20;16.40;;;;;;;-0.40;77.34;97436.86;107748;1235;103617;-78
2023/10/18 05:55:52;;;;;;;25.20;17.80;;;;;;;-0.39;77.36;97435.23;107935;1237;101305;-78
2023/10/18 05:58:25;;;;;;;34.60;19.80;;;;;;;-0.39;77.44;97436.09;108033;1238;99822;-78
2023/10/18 06:00:56;;;;;;;29.00;20.70;;;;;;;-0.36;77.55;97433.71;107765;1240;98016;-78
2023/10/18 06:03:25;;;;;;;32.80;20.40;;;;;;;-0.35;77.66;97433.63;108184;1244;98436;-78
2023/10/18 06:05:55;;;;;;;42.20;26.90;;;;;;;-0.34;77.73;97433.73;107689;1237;103541;-78
2023/10/18 06:08:23;;;;;;;44.10;28.20;;;;;;;-0.36;77.77;97426.92;107991;1237;100172;-77
2023/10/18 06:10:55;;;;;;;57.30;33.70;;;;;;;-0.35;77.84;97422.31;107927;1237;100012;-78
2023/10/18 06:13:21;;;;;;;48.40;31.00;;;;;;;-0.35;78.02;97425.11;107676;1237;99167;-78
2023/10/18 06:15:51;;;;;;;48.10;28.50;;;;;;;-0.31;78.13;97428.15;107893;1237;97937;-80
2023/10/18 06:18:25;;;;;;;40.30;26.90;;;;;;;-0.26;78.22;97430.66;107939;1238;103364;-80
2023/10/18 06:20:54;;;;;;;48.50;28.20;;;;;;;-0.21;78.41;97427.57;107310;1244;166306;-79
2023/10/18 06:23:39;;;;;;;46.00;29.80;;;;;;;-0.16;78.46;97425.61;108008;1248;98887;-80
2023/10/18 06:28:53;;;;;;;53.00;34.60;;;;;;;-0.07;78.50;97420.88;107893;1238;97907;-79
2023/10/18 06:31:21;;;;;;;53.60;38.10;;;;;;;-0.03;78.55;97421.01;107946;1245;103567;-79
2023/10/18 06:33:54;;;;;;;53.10;38.50;;;;;;;0.02;78.66;97423.00;108006;1237;101377;-79
2023/10/18 06:36:21;;;;;;;37.10;26.60;;;;;;;0.06;78.72;97421.19;107692;1245;98866;-79
2023/10/18 06:38:50;;;;;;;36.70;26.20;;;;;;;0.10;78.88;97421.02;107954;1245;98836;-79
2023/10/18 06:41:19;;;;;;;36.10;25.40;;;;;;;0.16;78.92;97423.14;107679;1239;98011;-79
2023/10/18 06:43:49;;;;;;;33.60;23.50;;;;;;;0.22;79.07;97421.60;107760;1240;102677;-78
2023/10/18 06:46:26;;;;;;;35.50;24.50;;;;;;;0.30;79.13;97416.42;107310;1244;101462;-79
2023/10/18 06:48:59;;;;;;;37.50;25.20;;;;;;;0.39;79.18;97417.58;107326;1245;99878;-80
2023/10/18 06:51:33;;;;;;;34.20;23.50;;;;;;;0.45;79.20;97419.83;107955;1235;97949;-74
2023/10/18 06:54:03;;;;;;;35.00;23.70;;;;;;;0.52;79.22;97418.08;107768;1240;98426;-74
2023/10/18 06:56:32;;;;;;;36.20;22.90;;;;;;;0.58;79.33;97418.75;108014;1241;101979;-74
2023/10/18 06:59:04;;;;;;;37.10;22.90;;;;;;;0.63;79.34;97416.21;107401;1245;101749;-74
2023/10/18 07:01:32;;;;;;;33.50;22.70;;;;;;;0.67;79.33;97416.41;107964;1237;97919;-72
2023/10/18 07:04:00;;;;;;;31.30;22.90;;;;;;;0.71;79.42;97410.13;107983;1238;98112;-73
2023/10/18 07:06:30;;;;;;;30.30;23.50;;;;;;;0.80;79.58;97405.06;107641;1233;98353;-73
2023/10/18 07:09:24;;;;;;;32.30;23.30;;;;;;;0.91;79.63;97407.61;107354;1237;102431;-73
2023/10/18 07:11:48;;;;;;;34.50;23.90;;;;;;;1.02;79.82;97407.64;107876;1244;100206;-79
2023/10/18 07:14:16;;;;;;;30.20;22.50;;;;;;;1.14;79.77;97403.46;107886;1248;97897;-79
2023/10/18 07:16:48;;;;;;;32.00;24.30;;;;;;;1.25;79.78;97402.60;107902;1244;99129;-80
2023/10/18 07:19:26;;;;;;;29.90;23.30;;;;;;;1.39;79.82;97402.85;107925;1235;97924;-79
2023/10/18 07:21:57;;;;;;;36.00;24.40;;;;;;;1.51;79.91;97399.32;107523;1241;103582;-79
2023/10/18 07:24:32;;;;;;;34.60;23.70;;;;;;;1.65;79.91;97394.49;107907;1244;100203;-79
2023/10/18 07:26:59;;;;;;;35.40;25.50;;;;;;;1.82;79.90;97390.58;107645;1247;100122;-79
2023/10/18 07:29:27;;;;;;;34.40;23.70;;;;;;;2.02;79.96;97386.59;107876;1237;97916;-74
2023/10/18 07:31:54;;;;;;;34.70;25.50;;;;;;;2.26;80.16;97384.95;107923;1234;98288;-74
2023/10/18 07:34:28;;;;;;;39.30;24.30;;;;;;;2.56;80.16;97387.13;107938;1237;103437;-74
2023/10/18 07:36:55;;;;;;;34.70;24.70;;;;;;;2.87;80.05;97382.06;107993;1240;101319;-74
2023/10/18 07:39:24;;;;;;;36.40;22.00;;;;;;;3.19;80.01;97383.91;107904;1237;98912;-75
2023/10/18 07:41:52;;;;;;;40.40;22.40;;;;;;;3.54;79.91;97383.77;107119;1243;98009;-75
2023/10/18 07:44:18;;;;;;;40.80;23.50;;;;;;;3.90;79.65;97379.67;107079;1253;97917;-75
2023/10/18 07:46:45;;;;;;;38.30;23.80;;;;;;;4.22;79.39;97371.70;107412;1241;98824;-79
2023/10/18 07:49:14;;;;;;;37.30;23.90;;;;;;;4.52;79.26;97372.91;107289;1246;98028;-78
2023/10/18 07:51:48;;;;;;;36.90;20.70;;;;;;;4.83;79.11;97374.38;106955;1249;97997;-79
2023/10/18 07:54:16;;;;;;;26.10;17.60;;;;;;;5.10;78.45;97375.38;107120;1245;98113;-79
2023/10/18 07:56:49;;;;;;;27.50;16.40;;;;;;;5.31;78.07;97371.28;107157;1245;98440;-78
2023/10/18 07:59:29;;;;;;;23.80;14.30;;;;;;;5.55;77.66;97370.58;107163;1251;103502;-79
2023/10/18 08:02:12;;;;;;;22.00;13.80;;;;;;;5.78;77.12;97370.30;107095;1250;98878;-80
2023/10/18 08:04:42;;;;;;;19.90;12.30;;;;;;;5.99;76.57;97368.23;107166;1254;99901;-79
2023/10/18 08:07:12;;;;;;;18.70;12.20;;;;;;;6.18;76.53;97363.02;107057;1254;99388;-79
2023/10/18 08:09:41;;;;;;;17.10;11.90;;;;;;;6.37;76.31;97363.07;107165;1246;98441;-79
2023/10/18 08:12:19;;;;;;;21.30;13.00;;;;;;;6.56;75.71;97362.88;106999;1247;102294;-80
2023/10/18 08:14:47;;;;;;;19.10;12.00;;;;;;;6.70;75.10;97360.58;107311;1251;101383;-79
2023/10/18 08:17:29;;;;;;;21.20;13.10;;;;;;;6.90;75.25;97359.96;107652;1251;99576;-76
2023/10/18 08:22:42;;;;;;;19.40;12.60;;;;;;;7.33;74.97;97352.70;107735;1241;98330;-74
2023/10/18 08:25:21;;;;;;;15.10;11.30;;;;;;;7.53;74.78;97343.45;107957;1247;98010;-74
2023/10/18 08:27:52;;;;;;;14.00;10.70;;;;;;;7.73;74.63;97332.29;107913;1238;101642;-74
2023/10/18 08:30:24;;;;;;;14.90;10.50;;;;;;;7.99;74.45;97331.95;107972;1237;99866;-75
2023/10/18 08:32:52;;;;;;;15.10;10.10;;;;;;;8.20;73.91;97327.81;107939;1237;97908;-81
2023/10/18 08:35:20;;;;;;;16.60;10.60;;;;;;;8.39;73.19;97324.75;107935;1241;98005;-81
2023/10/18 08:37:47;;;;;;;16.10;10.40;;;;;;;8.57;72.67;97319.59;107984;1244;102411;-79
2023/10/18 08:40:17;;;;;;;16.50;10.50;;;;;;;8.72;72.23;97318.36;107637;1242;97940;-83
2023/10/18 08:42:51;;;;;;;17.50;10.50;;;;;;;8.93;72.15;97318.92;107985;1236;99197;-84
2023/10/18 08:45:23;;;;;;;19.10;8.70;;;;;;;9.11;71.76;97318.17;107450;1241;98031;-80
2023/10/18 08:47:56;;;;;;;13.30;8.60;;;;;;;9.31;71.16;97313.23;107542;1241;97994;-80
2023/10/18 08:50:29;;;;;;;13.10;7.70;;;;;;;9.52;70.60;97309.15;107103;1247;102506;-81
2023/10/18 08:52:56;;;;;;;;;;;;;;;9.73;69.90;97307.36;107238;1244;101278;-81
2023/10/18 08:55:32;;;;;;;12.80;7.90;;;;;;;9.83;68.55;97302.29;107449;1249;97884;-82
2023/10/18 08:57:58;;;;;;;12.10;7.40;;;;;;;9.95;68.67;97300.95;107159;1244;97943;-82
2023/10/18 09:03:08;;;;;;;10.00;6.90;;;;;;;10.26;68.20;97304.45;106967;1251;103561;-79
2023/10/18 09:05:35;;;;;;;12.70;8.10;;;;;;;10.43;67.64;97304.02;107155;1248;101205;-80
2023/10/18 09:08:03;;;;;;;9.10;6.80;;;;;;;10.58;67.02;97301.05;107522;1243;97995;-83
2023/10/18 09:10:46;;;;;;;10.80;6.30;;;;;;;10.71;66.60;97295.02;107196;1238;98002;-84
2023/10/18 09:16:04;;;;;;;13.50;6.60;;;;;;;11.07;65.50;97290.66;107312;1241;102592;-78
2023/10/18 09:18:31;;;;;;;9.70;6.80;;;;;;;11.18;64.81;97286.45;107989;1248;101236;-80
2023/10/18 09:21:07;;;;;;;8.50;6.30;;;;;;;11.28;64.54;97283.02;107974;1235;98545;-80
2023/10/18 09:23:34;;;;;;;11.80;6.60;;;;;;;11.37;64.15;97286.56;107960;1236;97894;-80
2023/10/18 09:26:10;;;;;;;9.40;6.90;;;;;;;11.45;64.11;97283.77;107845;1244;97930;-82
2023/10/18 09:28:38;;;;;;;11.20;7.40;;;;;;;11.58;63.69;97274.71;107149;1245;103678;-83
2023/10/18 09:31:11;;;;;;;11.70;7.10;;;;;;;11.73;63.19;97274.13;107243;1243;99253;-82
2023/10/18 09:33:48;;;;;;;11.40;7.00;;;;;;;11.87;63.10;97271.36;107131;1247;99975;-83
2023/10/18 09:36:19;;;;;;;10.60;6.90;;;;;;;12.03;62.64;97263.55;107381;1242;98077;-81
2023/10/18 09:38:51;;;;;;;12.00;7.00;;;;;;;12.13;62.08;97262.91;107094;1245;98503;-82
2023/10/18 09:41:18;;;;;;;8.10;6.40;;;;;;;12.22;61.60;97256.73;107409;1243;103412;-81
2023/10/18 09:43:46;;;;;;;12.30;6.70;;;;;;;12.29;61.28;97256.57;107074;1244;98100;-78
2023/10/18 09:46:14;;;;;;;7.70;6.10;;;;;;;12.34;60.50;97257.34;107526;1238;99084;-82
2023/10/18 09:48:45;;;;;;;11.70;6.50;;;;;;;12.40;60.24;97260.48;107354;1253;98004;-80
2023/10/18 09:51:15;;;;;;;12.40;6.30;;;;;;;12.48;59.98;97256.34;107161;1244;98388;-80
2023/10/18 09:53:42;;;;;;;11.70;6.50;;;;;;;12.61;59.88;97252.02;107526;1249;103598;-81
2023/10/18 09:56:17;;;;;;;10.40;6.20;;;;;;;12.75;59.52;97250.09;107473;1241;98097;-81
2023/10/18 09:58:46;;;;;;;12.40;6.90;;;;;;;12.89;59.04;97246.73;107229;1242;99827;-80
2023/10/18 10:01:26;;;;;;;11.10;6.90;;;;;;;13.02;58.66;97244.37;107714;1241;97991;-81
2023/10/18 10:03:56;;;;;;;10.40;6.20;;;;;;;13.15;58.13;97240.83;107937;1237;98430;-82
2023/10/18 10:06:28;;;;;;;8.10;6.50;;;;;;;13.23;57.69;97235.11;107344;1241;103440;-81
2023/10/18 10:09:11;;;;;;;8.50;5.70;;;;;;;13.29;57.16;97234.39;107597;1243;101596;-80
2023/10/18 10:11:47;;;;;;;10.70;6.60;;;;;;;13.33;57.40;97233.07;107935;1237;99967;-80
2023/10/18 10:14:17;;;;;;;12.60;6.60;;;;;;;13.39;57.13;97229.62;107963;1235;97975;-81
2023/10/18 10:17:08;;;;;;;8.60;5.50;;;;;;;13.44;56.51;97229.86;107921;1234;98356;-81
2023/10/18 10:19:44;;;;;;;9.70;5.80;;;;;;;13.50;56.13;97224.27;107492;1241;103419;-80
2023/10/18 10:22:14;;;;;;;9.80;5.50;;;;;;;13.57;55.60;97217.83;108125;1237;101386;-79
2023/10/18 10:24:42;;;;;;;10.80;5.70;;;;;;;13.69;55.58;97220.34;111164;1234;99587;-80
2023/10/18 10:27:27;;;;;;;9.00;5.30;;;;;;;13.75;54.70;97218.91;108003;1248;97914;-78
2023/10/18 10:30:03;;;;;;;7.80;5.80;;;;;;;13.83;54.64;97212.53;108041;1236;98700;-80
2023/10/18 10:32:31;;;;;;;8.70;5.50;;;;;;;13.87;54.46;97213.11;108497;1233;103614;-79
2023/10/18 10:35:14;;;;;;;8.90;6.50;;;;;;;13.87;54.25;97216.48;108013;1235;101614;-80
2023/10/18 10:37:49;;;;;;;10.50;5.70;;;;;;;13.94;53.93;97213.87;107998;1237;98273;-80
2023/10/18 10:40:36;;;;;;;9.20;6.50;;;;;;;14.01;53.59;97212.48;108081;1237;97910;-80
2023/10/18 10:43:09;;;;;;;9.60;5.70;;;;;;;14.12;53.27;97205.18;108121;1237;98343;-81
2023/10/18 10:45:43;;;;;;;10.20;6.70;;;;;;;14.24;52.98;97204.46;108078;1236;103456;-81
2023/10/18 10:48:16;;;;;;;9.30;6.20;;;;;;;14.31;52.78;97203.64;108052;1237;100175;-81
2023/10/18 10:50:50;;;;;;;9.30;6.00;;;;;;;14.32;52.57;97203.66;107946;1241;98680;-80
2023/10/18 10:53:54;;;;;;;9.10;6.20;;;;;;;14.35;52.40;97204.59;108031;1233;98902;-81
2023/10/18 10:56:23;;;;;;;9.50;5.40;;;;;;;14.46;51.87;97201.19;108088;1237;98658;-80
2023/10/18 10:59:03;;;;;;;7.80;6.00;;;;;;;14.58;51.71;97200.27;107941;1237;102377;-80
2023/10/18 11:01:39;;;;;;;8.50;6.00;;;;;;;14.72;51.34;97197.20;107552;1241;101433;-81
2023/10/18 11:04:14;;;;;;;13.50;9.30;;;;;;;14.83;51.30;97195.13;108022;1236;99163;-81
2023/10/18 11:06:44;;;;;;;18.10;10.50;;;;;;;14.94;51.20;97191.86;108062;1235;97949;-86
2023/10/18 11:09:15;;;;;;;11.80;6.70;;;;;;;15.02;50.92;97186.45;108065;1237;98345;-82
2023/10/18 11:11:44;;;;;;;11.00;6.10;;;;;;;15.11;50.71;97183.85;107711;1241;102503;-85
2023/10/18 11:14:17;;;;;;;11.80;6.40;;;;;;;15.27;50.86;97174.60;107602;1248;108602;-84
2023/10/18 11:16:45;;;;;;;7.70;5.70;;;;;;;15.32;50.02;97173.56;108037;1237;99039;-84
2023/10/18 11:19:15;;;;;;;7.10;5.50;;;;;;;15.37;49.75;97168.15;107534;1242;98115;-82
2023/10/18 11:21:43;;;;;;;10.30;6.20;;;;;;;15.50;49.18;97165.40;107607;1241;99054;-82
2023/10/18 11:24:11;;;;;;;6.90;5.60;;;;;;;15.56;49.14;97160.19;107717;1241;103461;-83
2023/10/18 11:26:40;;;;;;;8.20;6.20;;;;;;;15.61;49.43;97157.45;108045;1238;101304;-82
2023/10/18 11:29:07;;;;;;;10.60;6.70;;;;;;;15.76;48.80;97160.16;108074;1246;98851;-82
2023/10/18 11:31:38;;;;;;;11.20;6.00;;;;;;;15.84;48.47;97160.82;107977;1237;97957;-85
2023/10/18 11:34:07;;;;;;;10.30;5.70;;;;;;;15.91;48.32;97156.46;107770;1240;98375;-85
2023/10/18 11:36:38;;;;;;;10.20;5.40;;;;;;;16.03;48.34;97154.50;108055;1237;103444;-84
2023/10/18 11:39:18;;;;;;;6.40;4.80;;;;;;;16.17;47.67;97152.08;107663;1241;101591;-81
2023/10/18 11:41:48;;;;;;;7.90;5.60;;;;;;;16.27;47.47;97152.04;107803;1234;99864;-82
2023/10/18 11:44:31;;;;;;;9.00;4.50;;;;;;;16.28;46.74;97149.42;107530;1240;97942;-82